sensor_id;sensor_type;location;lat;lon;timestamp;temperature;humidity
14144;DHT22;7152;48.348;10.980;2022-09-09T18:23:18;15.10;99.90
14144;DHT22;7152;48.348;10.980;2022-09-09T18:25:43;14.50;99.90
14144;DHT22;7152;48.348;10.980;2022-09-09T18:28:10;14.20;99.90
14144;DHT22;7152;48.348;10.980;2022-09-09T18:30:39;13.90;99.90
14144;DHT22;7152;48.348;10.980;2022-09-09T18:33:04;13.80;99.90
14144;DHT22;7152;48.348;10.980;2022-09-09T18:35:30;13.80;99.90
14144;DHT22;7152;48.348;10.980;2022-09-09T18:37:56;13.80;99.90
14144;DHT22;7152;48.348;10.980;2022-09-09T18:40:22;13.80;99.90
14144;DHT22;7152;48.348;10.980;2022-09-09T18:42:48;13.80;99.90
14144;DHT22;7152;48.348;10.980;2022-09-09T18:45:14;13.80;99.90
14144;DHT22;7152;48.348;10.980;2022-09-09T18:47:40;13.80;99.90
14144;DHT22;7152;48.348;10.980;2022-09-09T18:50:07;13.90;99.90
14144;DHT22;7152;48.348;10.980;2022-09-09T18:52:33;13.90;99.90
14144;DHT22;7152;48.348;10.980;2022-09-09T18:54:58;13.90;99.90
14144;DHT22;7152;48.348;10.980;2022-09-09T18:57:24;13.80;99.90
14144;DHT22;7152;48.348;10.980;2022-09-09T18:59:50;13.80;99.90
14144;DHT22;7152;48.348;10.980;2022-09-09T19:02:19;13.80;99.90
14144;DHT22;7152;48.348;10.980;2022-09-09T19:04:46;13.80;99.90
14144;DHT22;7152;48.348;10.980;2022-09-09T19:07:11;13.80;99.90
14144;DHT22;7152;48.348;10.980;2022-09-09T19:09:37;13.70;99.90
14144;DHT22;7152;48.348;10.980;2022-09-09T19:12:03;13.70;99.90
14144;DHT22;7152;48.348;10.980;2022-09-09T19:14:30;13.60;99.90
14144;DHT22;7152;48.348;10.980;2022-09-09T19:16:57;13.60;99.90
14144;DHT22;7152;48.348;10.980;2022-09-09T19:19:26;13.60;99.90
14144;DHT22;7152;48.348;10.980;2022-09-09T19:21:52;13.50;99.90
14144;DHT22;7152;48.348;10.980;2022-09-09T19:24:24;13.50;99.90
14144;DHT22;7152;48.348;10.980;2022-09-09T19:26:54;13.50;99.90
14144;DHT22;7152;48.348;10.980;2022-09-09T19:29:24;13.40;99.90
14144;DHT22;7152;48.348;10.980;2022-09-09T19:31:51;13.40;99.90
14144;DHT22;7152;48.348;10.980;2022-09-09T19:34:18;13.40;99.90
14144;DHT22;7152;48.348;10.980;2022-09-09T19:36:45;13.40;99.90
14144;DHT22;7152;48.348;10.980;2022-09-09T19:39:12;13.30;99.90
14144;DHT22;7152;48.348;10.980;2022-09-09T19:41:38;13.40;99.90
14144;DHT22;7152;48.348;10.980;2022-09-09T19:44:05;13.50;99.90
14144;DHT22;7152;48.348;10.980;2022-09-09T19:46:34;13.50;99.90
14144;DHT22;7152;48.348;10.980;2022-09-09T19:49:00;13.50;99.90
14144;DHT22;7152;48.348;10.980;2022-09-09T19:51:28;13.60;99.90
14144;DHT22;7152;48.348;10.980;2022-09-09T19:54:03;13.60;99.90
14144;DHT22;7152;48.348;10.980;2022-09-09T19:56:31;13.70;99.90
14144;DHT22;7152;48.348;10.980;2022-09-09T19:58:57;13.60;99.90
14144;DHT22;7152;48.348;10.980;2022-09-09T20:01:28;13.70;99.90
14144;DHT22;7152;48.348;10.980;2022-09-09T20:03:56;13.70;99.90
14144;DHT22;7152;48.348;10.980;2022-09-09T20:06:25;13.70;99.90
14144;DHT22;7152;48.348;10.980;2022-09-09T20:08:52;13.70;99.90
14144;DHT22;7152;48.348;10.980;2022-09-09T20:11:18;13.70;99.90
14144;DHT22;7152;48.348;10.980;2022-09-09T20:13:45;13.80;99.90
14144;DHT22;7152;48.348;10.980;2022-09-09T20:18:43;13.80;99.90
14144;DHT22;7152;48.348;10.980;2022-09-09T20:21:21;13.70;99.90
14144;DHT22;7152;48.348;10.980;2022-09-09T20:23:48;13.70;99.90
14144;DHT22;7152;48.348;10.980;2022-09-09T20:26:16;13.70;99.90
14144;DHT22;7152;48.348;10.980;2022-09-09T20:28:43;13.70;99.90
14144;DHT22;7152;48.348;10.980;2022-09-09T20:31:13;13.80;99.90
14144;DHT22;7152;48.348;10.980;2022-09-09T20:33:40;13.80;99.90
14144;DHT22;7152;48.348;10.980;2022-09-09T20:36:16;13.80;99.90
14144;DHT22;7152;48.348;10.980;2022-09-09T20:38:44;13.80;99.90
14144;DHT22;7152;48.348;10.980;2022-09-09T20:41:12;13.80;99.90
14144;DHT22;7152;48.348;10.980;2022-09-09T20:44:07;13.80;99.90
14144;DHT22;7152;48.348;10.980;2022-09-09T20:46:37;13.80;99.90
14144;DHT22;7152;48.348;10.980;2022-09-09T20:49:05;13.80;99.90
14144;DHT22;7152;48.348;10.980;2022-09-09T20:51:33;13.80;99.90
14144;DHT22;7152;48.348;10.980;2022-09-09T20:54:05;13.80;99.90
14144;DHT22;7152;48.348;10.980;2022-09-09T20:56:35;13.80;99.90
14144;DHT22;7152;48.348;10.980;2022-09-09T20:59:04;13.80;99.90
14144;DHT22;7152;48.348;10.980;2022-09-09T21:01:30;13.80;99.90
14144;DHT22;7152;48.348;10.980;2022-09-09T21:03:55;13.80;99.90
14144;DHT22;7152;48.348;10.980;2022-09-09T21:06:21;13.80;99.90
14144;DHT22;7152;48.348;10.980;2022-09-09T21:08:48;13.80;99.90
14144;DHT22;7152;48.348;10.980;2022-09-09T21:11:14;13.80;99.90
14144;DHT22;7152;48.348;10.980;2022-09-09T21:13:40;13.80;99.90
14144;DHT22;7152;48.348;10.980;2022-09-09T21:16:08;13.80;99.90
14144;DHT22;7152;48.348;10.980;2022-09-09T21:21:04;13.80;99.90
14144;DHT22;7152;48.348;10.980;2022-09-09T21:23:29;13.80;99.90
14144;DHT22;7152;48.348;10.980;2022-09-09T21:25:55;13.80;99.90
14144;DHT22;7152;48.348;10.980;2022-09-09T21:28:21;13.80;99.90
14144;DHT22;7152;48.348;10.980;2022-09-09T21:30:52;13.80;99.90
14144;DHT22;7152;48.348;10.980;2022-09-09T21:33:20;13.80;99.90
14144;DHT22;7152;48.348;10.980;2022-09-09T21:35:46;13.80;99.90
14144;DHT22;7152;48.348;10.980;2022-09-09T21:38:15;13.80;99.90
14144;DHT22;7152;48.348;10.980;2022-09-09T21:40:42;13.80;99.90
14144;DHT22;7152;48.348;10.980;2022-09-09T21:43:11;13.80;99.90
14144;DHT22;7152;48.348;10.980;2022-09-09T21:45:41;13.90;99.90
14144;DHT22;7152;48.348;10.980;2022-09-09T21:48:09;13.90;99.90
14144;DHT22;7152;48.348;10.980;2022-09-09T21:50:40;13.90;99.90
14144;DHT22;7152;48.348;10.980;2022-09-09T21:53:06;14.00;99.90
14144;DHT22;7152;48.348;10.980;2022-09-09T21:55:34;14.00;99.90
14144;DHT22;7152;48.348;10.980;2022-09-09T21:58:01;14.00;99.90
14144;DHT22;7152;48.348;10.980;2022-09-09T22:00:26;14.00;99.90
14144;DHT22;7152;48.348;10.980;2022-09-09T22:02:52;13.90;99.90
14144;DHT22;7152;48.348;10.980;2022-09-09T22:05:18;13.80;99.90
14144;DHT22;7152;48.348;10.980;2022-09-09T22:07:43;13.80;99.90
14144;DHT22;7152;48.348;10.980;2022-09-09T22:10:09;13.80;99.90
14144;DHT22;7152;48.348;10.980;2022-09-09T22:12:35;13.70;99.90
14144;DHT22;7152;48.348;10.980;2022-09-09T22:15:02;13.70;99.90
14144;DHT22;7152;48.348;10.980;2022-09-09T22:17:27;13.70;99.90
14144;DHT22;7152;48.348;10.980;2022-09-09T22:19:54;13.60;99.90
14144;DHT22;7152;48.348;10.980;2022-09-09T22:22:20;13.60;99.90
14144;DHT22;7152;48.348;10.980;2022-09-09T22:24:46;13.50;99.90
14144;DHT22;7152;48.348;10.980;2022-09-09T22:27:12;13.50;99.90
14144;DHT22;7152;48.348;10.980;2022-09-09T22:29:40;13.40;99.90
14144;DHT22;7152;48.348;10.980;2022-09-09T22:32:05;13.40;99.90
14144;DHT22;7152;48.348;10.980;2022-09-09T22:34:32;13.40;99.90
14144;DHT22;7152;48.348;10.980;2022-09-09T22:37:00;13.30;99.90
14144;DHT22;7152;48.348;10.980;2022-09-09T22:39:27;13.30;99.90
14144;DHT22;7152;48.348;10.980;2022-09-09T22:41:53;13.30;99.90
14144;DHT22;7152;48.348;10.980;2022-09-09T22:44:22;13.20;99.90
14144;DHT22;7152;48.348;10.980;2022-09-09T22:46:48;13.20;99.90
14144;DHT22;7152;48.348;10.980;2022-09-09T22:49:14;13.20;99.90
14144;DHT22;7152;48.348;10.980;2022-09-09T22:51:39;13.10;99.90
14144;DHT22;7152;48.348;10.980;2022-09-09T22:54:05;13.10;99.90
14144;DHT22;7152;48.348;10.980;2022-09-09T22:56:32;13.10;99.90
14144;DHT22;7152;48.348;10.980;2022-09-09T22:58:58;13.10;99.90
14144;DHT22;7152;48.348;10.980;2022-09-09T23:01:25;13.10;99.90
14144;DHT22;7152;48.348;10.980;2022-09-09T23:03:53;13.00;99.90
14144;DHT22;7152;48.348;10.980;2022-09-09T23:06:23;13.00;99.90
14144;DHT22;7152;48.348;10.980;2022-09-09T23:08:51;13.00;99.90
14144;DHT22;7152;48.348;10.980;2022-09-09T23:11:18;12.90;99.90
14144;DHT22;7152;48.348;10.980;2022-09-09T23:13:51;12.90;99.90
14144;DHT22;7152;48.348;10.980;2022-09-09T23:16:23;12.90;99.90
14144;DHT22;7152;48.348;10.980;2022-09-09T23:18:50;12.80;99.90
14144;DHT22;7152;48.348;10.980;2022-09-09T23:21:20;12.80;99.90
14144;DHT22;7152;48.348;10.980;2022-09-09T23:23:51;12.80;99.90
14144;DHT22;7152;48.348;10.980;2022-09-09T23:26:17;12.70;99.90
14144;DHT22;7152;48.348;10.980;2022-09-09T23:28:45;12.70;99.90
14144;DHT22;7152;48.348;10.980;2022-09-09T23:31:13;12.70;99.90
14144;DHT22;7152;48.348;10.980;2022-09-09T23:33:39;12.70;99.90
14144;DHT22;7152;48.348;10.980;2022-09-09T23:36:09;12.60;99.90
14144;DHT22;7152;48.348;10.980;2022-09-09T23:38:36;12.60;99.90
14144;DHT22;7152;48.348;10.980;2022-09-09T23:41:04;12.60;99.90
14144;DHT22;7152;48.348;10.980;2022-09-09T23:43:30;12.60;99.90
14144;DHT22;7152;48.348;10.980;2022-09-09T23:45:55;12.50;99.90
14144;DHT22;7152;48.348;10.980;2022-09-09T23:48:22;12.50;99.90
14144;DHT22;7152;48.348;10.980;2022-09-09T23:50:47;12.50;99.90
14144;DHT22;7152;48.348;10.980;2022-09-09T23:53:15;12.50;99.90
14144;DHT22;7152;48.348;10.980;2022-09-09T23:55:42;12.60;99.90
14144;DHT22;7152;48.348;10.980;2022-09-09T23:58:08;12.50;99.90
